Time;durP1;ratioP1;P1;durP2;ratioP2;P2;SDS_P1;SDS_P2;PMS_P1;PMS_P2;Temp;Humidity;BMP_temperature;BMP_pressure;BME280_temperature;BME280_humidity;BME280_pressure;Samples;Min_cycle;Max_cycle;Signal;HPM_P1;HPM_P2
2021/05/21 00:01:49;;;;;;;8.10;5.78;;;;;;;15.34;69.63;99659.78;5031563;28;20025;-23
2021/05/21 00:04:14;;;;;;;8.35;4.97;;;;;;;15.20;67.47;99654.88;5031717;28;20029;-22
2021/05/21 00:06:40;;;;;;;8.38;4.80;;;;;;;15.21;68.56;99672.59;5031870;28;20493;-24
2021/05/21 00:09:06;;;;;;;7.00;4.35;;;;;;;15.43;68.22;99674.34;5031733;28;20513;-23
2021/05/21 00:11:32;;;;;;;6.18;4.00;;;;;;;15.53;66.57;99671.72;5031651;28;20025;-23
2021/05/21 00:13:57;;;;;;;5.70;3.67;;;;;;;15.32;67.15;99667.28;5031956;28;20041;-23
2021/05/21 00:16:23;;;;;;;6.47;2.92;;;;;;;15.08;67.07;99681.13;5031723;28;20108;-23
2021/05/21 00:18:49;;;;;;;5.20;2.70;;;;;;;15.48;65.25;99671.69;5031720;28;20026;-23
2021/05/21 00:21:15;;;;;;;3.83;2.40;;;;;;;15.35;64.09;99664.09;5031376;28;20037;-23
2021/05/21 00:23:40;;;;;;;5.38;2.70;;;;;;;15.36;67.27;99684.50;5031657;28;20029;-23
2021/05/21 00:26:06;;;;;;;2.95;2.00;;;;;;;15.60;64.98;99680.34;5031691;28;20056;-23
2021/05/21 00:28:31;;;;;;;4.35;2.58;;;;;;;15.70;64.82;99678.78;5032276;28;20083;-23
2021/05/21 00:30:57;;;;;;;4.53;2.33;;;;;;;15.55;65.68;99669.59;5035054;28;20029;-22
2021/05/21 00:33:22;;;;;;;4.07;2.53;;;;;;;15.52;65.01;99677.34;5035166;28;20025;-22
2021/05/21 00:35:48;;;;;;;4.18;2.45;;;;;;;15.38;63.74;99679.69;5035108;28;20025;-23
2021/05/21 00:38:13;;;;;;;3.42;2.20;;;;;;;14.72;64.59;99674.66;5035095;28;20032;-23
2021/05/21 00:40:39;;;;;;;5.97;2.30;;;;;;;14.33;65.99;99672.94;5035080;28;20034;-23
2021/05/21 00:43:04;;;;;;;3.35;1.88;;;;;;;13.95;66.58;99676.53;5035063;28;20026;-23
2021/05/21 00:45:30;;;;;;;3.60;2.35;;;;;;;14.10;66.74;99674.03;5035229;28;20048;-22
2021/05/21 00:47:55;;;;;;;3.45;2.10;;;;;;;14.34;65.82;99658.44;5034818;28;20022;-23
2021/05/21 00:50:21;;;;;;;5.40;2.67;;;;;;;14.38;66.13;99681.00;5034488;28;20044;-23
2021/05/21 00:52:46;;;;;;;2.75;1.67;;;;;;;14.51;64.64;99673.66;5035048;28;20058;-23
2021/05/21 00:55:12;;;;;;;3.22;2.08;;;;;;;14.24;64.78;99667.22;5034807;28;20056;-23
2021/05/21 00:57:40;;;;;;;3.28;2.10;;;;;;;14.41;65.52;99675.16;5034826;28;20055;-23
2021/05/21 01:00:06;;;;;;;25.75;4.07;;;;;;;14.26;66.21;99683.88;5033911;28;20030;-23
2021/05/21 01:02:32;;;;;;;5.00;2.20;;;;;;;14.14;66.05;99683.22;5034507;28;20069;-22
2021/05/21 01:04:57;;;;;;;4.53;2.45;;;;;;;14.23;66.45;99672.84;5033709;28;20052;-22
2021/05/21 01:07:23;;;;;;;4.38;2.40;;;;;;;14.23;66.81;99673.63;5029854;28;20080;-22
2021/05/21 01:09:50;;;;;;;3.95;2.53;;;;;;;13.97;66.88;99640.38;5029222;28;20057;-22
2021/05/21 01:12:16;;;;;;;4.35;2.70;;;;;;;13.90;67.51;99668.44;5027871;28;20044;-23
2021/05/21 01:14:52;;;;;;;7.43;2.78;;;;;;;14.09;67.48;99672.41;5029490;28;20034;-23
2021/05/21 01:17:19;;;;;;;7.32;2.67;;;;;;;13.81;67.89;99657.34;5029165;28;20112;-22
2021/05/21 01:19:44;;;;;;;4.22;2.58;;;;;;;13.79;67.59;99656.78;5029325;28;20036;-24
2021/05/21 01:22:11;;;;;;;5.10;3.35;;;;;;;13.80;68.46;99658.41;5029068;28;20037;-21
2021/05/21 01:24:37;;;;;;;4.03;2.65;;;;;;;13.84;67.99;99659.53;5029155;28;20485;-23
2021/05/21 01:27:02;;;;;;;4.70;3.50;;;;;;;13.66;67.84;99653.41;5027871;28;20121;-23
2021/05/21 01:29:28;;;;;;;4.40;2.88;;;;;;;13.60;68.36;99646.38;5029097;28;20034;-20
2021/05/21 01:31:54;;;;;;;10.02;3.00;;;;;;;13.60;67.69;99649.06;5029244;28;20136;-22
2021/05/21 01:34:19;;;;;;;5.32;3.20;;;;;;;13.34;69.21;99652.47;5028948;28;20108;-23
2021/05/21 01:36:47;;;;;;;3.80;2.47;;;;;;;13.08;68.87;99636.03;5028905;28;20071;-23
2021/05/21 01:39:12;;;;;;;4.97;2.92;;;;;;;13.38;69.02;99653.59;5028824;28;20101;-22
2021/05/21 01:41:38;;;;;;;4.70;2.90;;;;;;;13.23;67.87;99628.19;5027917;28;20037;-23
2021/05/21 01:44:05;;;;;;;4.13;2.80;;;;;;;13.29;68.84;99657.72;5028620;28;20026;-23
2021/05/21 01:46:30;;;;;;;5.30;2.80;;;;;;;13.15;69.56;99649.22;5027151;28;20029;-23
2021/05/21 01:48:56;;;;;;;9.52;3.00;;;;;;;13.48;68.63;99645.69;5027528;28;20053;-23
2021/05/21 01:51:21;;;;;;;4.22;3.08;;;;;;;13.49;68.92;99650.00;5028527;28;20049;-22
2021/05/21 01:53:47;;;;;;;4.47;2.90;;;;;;;13.46;68.64;99654.00;5028505;28;20091;-22
2021/05/21 01:56:12;;;;;;;4.28;2.72;;;;;;;13.42;67.43;99631.44;5027331;28;20482;-22
2021/05/21 01:58:38;;;;;;;4.20;3.00;;;;;;;13.64;67.91;99639.47;5027285;28;20033;-22
2021/05/21 02:01:04;;;;;;;4.07;2.90;;;;;;;13.79;68.13;99640.69;5028465;28;20025;-22
2021/05/21 02:03:30;;;;;;;4.63;2.80;;;;;;;13.31;68.75;99629.66;5028437;28;20037;-23
2021/05/21 02:05:56;;;;;;;4.43;2.70;;;;;;;13.33;68.43;99629.44;5028580;28;20029;-23
2021/05/21 02:08:25;;;;;;;5.25;2.85;;;;;;;13.52;68.72;99662.88;5026602;28;20112;-22
2021/05/21 02:10:54;;;;;;;4.32;2.85;;;;;;;13.45;68.07;99636.28;5028129;28;20025;-22
2021/05/21 02:13:19;;;;;;;4.60;3.40;;;;;;;13.56;69.13;99657.84;5028406;28;20037;-23
2021/05/21 02:15:45;;;;;;;5.45;3.22;;;;;;;13.51;68.71;99649.75;5028059;28;20442;-22
2021/05/21 02:18:11;;;;;;;4.82;3.25;;;;;;;13.38;68.78;99657.09;5027997;28;20037;-22
2021/05/21 02:20:37;;;;;;;4.68;3.10;;;;;;;13.26;69.02;99659.84;5028138;28;20037;-23
2021/05/21 02:23:03;;;;;;;4.88;3.10;;;;;;;12.84;70.51;99662.94;5027828;28;20060;-22
2021/05/21 02:25:29;;;;;;;5.90;3.45;;;;;;;13.08;71.05;99646.72;5028043;28;20057;-22
2021/05/21 02:27:55;;;;;;;7.88;4.10;;;;;;;13.24;70.06;99661.94;5026666;28;20076;-22
2021/05/21 02:30:20;;;;;;;6.07;3.63;;;;;;;13.29;69.83;99663.09;5027722;28;20025;-22
2021/05/21 02:32:46;;;;;;;7.00;3.67;;;;;;;13.28;70.14;99667.63;5027728;28;20018;-22
2021/05/21 02:35:12;;;;;;;6.43;3.53;;;;;;;13.40;69.64;99643.44;5027783;28;20025;-23
2021/05/21 02:37:37;;;;;;;5.68;3.83;;;;;;;13.70;69.82;99658.28;5027787;28;20025;-22
2021/05/21 02:40:05;;;;;;;7.10;3.97;;;;;;;13.51;69.43;99642.53;5026542;28;20101;-22
2021/05/21 02:42:30;;;;;;;6.30;3.90;;;;;;;13.35;69.50;99640.69;5027407;28;20088;-22
2021/05/21 02:44:56;;;;;;;6.75;3.58;;;;;;;13.23;70.83;99656.84;5027783;28;20065;-22
2021/05/21 02:47:21;;;;;;;6.57;3.90;;;;;;;13.29;70.24;99636.31;5027623;28;20040;-21
2021/05/21 02:49:47;;;;;;;7.40;4.18;;;;;;;13.36;70.57;99656.53;5027597;28;20036;-22
2021/05/21 02:52:12;;;;;;;6.60;4.05;;;;;;;13.38;70.07;99650.91;5025815;28;20065;-23
2021/05/21 02:54:38;;;;;;;6.10;4.22;;;;;;;13.25;70.88;99660.06;5027632;28;20034;-23
2021/05/21 02:57:03;;;;;;;6.53;4.35;;;;;;;13.18;70.57;99657.59;5027337;28;20029;-23
2021/05/21 02:59:29;;;;;;;8.93;3.97;;;;;;;13.31;70.84;99658.31;5027506;28;20032;-23
2021/05/21 03:01:54;;;;;;;7.45;4.40;;;;;;;12.74;71.38;99667.34;5027358;28;20113;-22
2021/05/21 03:04:20;;;;;;;6.50;3.75;;;;;;;12.61;72.58;99674.63;5027212;28;20104;-22
2021/05/21 03:06:46;;;;;;;7.13;4.28;;;;;;;12.31;73.81;99664.19;5027483;28;20040;-22
2021/05/21 03:09:11;;;;;;;6.38;3.78;;;;;;;12.47;73.40;99657.25;5027827;28;20061;-23
2021/05/21 03:11:37;;;;;;;9.20;4.07;;;;;;;12.62;73.60;99662.84;5027275;28;20085;-23
2021/05/21 03:14:03;;;;;;;6.72;3.95;;;;;;;12.70;72.84;99656.31;5027345;28;20104;-23
2021/05/21 03:16:28;;;;;;;5.72;4.00;;;;;;;12.65;72.57;99629.47;5027363;28;20052;-23
2021/05/21 03:18:54;;;;;;;6.72;3.75;;;;;;;12.99;72.93;99667.72;5027094;28;20057;-23
2021/05/21 03:21:20;;;;;;;6.47;4.50;;;;;;;13.08;72.15;99652.09;5027348;28;20034;-22
2021/05/21 03:23:45;;;;;;;6.22;3.90;;;;;;;13.34;70.42;99673.88;5027037;28;20116;-22
2021/05/21 03:26:11;;;;;;;6.13;3.83;;;;;;;13.39;70.57;99655.22;5026901;28;20164;-22
2021/05/21 03:28:39;;;;;;;12.60;5.63;;;;;;;13.59;69.74;99679.59;5027126;28;20069;-20
2021/05/21 03:31:05;;;;;;;6.80;4.10;;;;;;;13.58;68.88;99677.97;5027038;28;20091;-22
2021/05/21 03:33:31;;;;;;;5.88;3.85;;;;;;;13.49;69.67;99692.84;5027280;28;20030;-22
2021/05/21 03:35:56;;;;;;;8.27;4.43;;;;;;;13.48;69.42;99701.94;5027278;28;20437;-22
2021/05/21 03:38:24;;;;;;;5.63;4.05;;;;;;;13.69;68.70;99694.16;5025917;28;20414;-22
2021/05/21 03:40:49;;;;;;;7.10;4.78;;;;;;;13.73;68.37;99709.53;5027008;28;20079;-23
2021/05/21 03:43:15;;;;;;;6.32;4.20;;;;;;;13.54;68.89;99708.97;5025655;28;20076;-22
2021/05/21 03:45:40;;;;;;;5.60;3.78;;;;;;;13.65;68.30;99700.03;5026997;28;20494;-23
2021/05/21 03:48:07;;;;;;;6.15;3.97;;;;;;;13.76;67.14;99689.44;5026960;28;20029;-22
2021/05/21 03:50:32;;;;;;;5.50;3.75;;;;;;;13.47;67.53;99703.00;5026428;28;20036;-22
2021/05/21 03:52:58;;;;;;;6.97;3.90;;;;;;;13.53;69.03;99710.06;5026867;28;20061;-21
2021/05/21 03:55:23;;;;;;;6.60;4.25;;;;;;;13.57;68.82;99707.69;5026982;28;20036;-22
2021/05/21 03:57:49;;;;;;;5.00;3.80;;;;;;;13.50;68.97;99713.22;5026829;28;20040;-23
2021/05/21 04:00:16;;;;;;;5.95;4.10;;;;;;;13.50;68.59;99713.22;5025496;28;20025;-22
2021/05/21 04:02:42;;;;;;;6.90;3.83;;;;;;;13.60;69.15;99716.03;5026778;28;20060;-23
2021/05/21 04:05:08;;;;;;;5.80;3.90;;;;;;;13.41;68.37;99720.06;5029940;28;20084;-22
2021/05/21 04:07:33;;;;;;;5.13;3.58;;;;;;;13.48;68.20;99731.41;5029365;28;20096;-22
2021/05/21 04:09:59;;;;;;;6.80;3.67;;;;;;;13.16;69.62;99729.31;5030498;28;20194;-22
2021/05/21 04:12:28;;;;;;;5.90;4.00;;;;;;;13.29;69.43;99724.69;5030329;28;20025;-22
2021/05/21 04:14:55;;;;;;;6.13;3.47;;;;;;;13.12;69.67;99736.22;5030527;28;20033;-22
2021/05/21 04:17:20;;;;;;;5.53;3.78;;;;;;;13.42;69.17;99749.28;5030399;28;20033;-22
2021/05/21 04:19:47;;;;;;;5.25;3.90;;;;;;;13.41;68.99;99736.13;5030439;28;20033;-21
2021/05/21 04:22:12;;;;;;;6.10;3.95;;;;;;;13.87;67.72;99742.13;5030088;28;20021;-22
2021/05/21 04:24:38;;;;;;;5.07;3.45;;;;;;;13.66;68.16;99749.88;5029009;28;20095;-22
2021/05/21 04:27:04;;;;;;;5.35;3.70;;;;;;;13.73;68.14;99754.25;5030721;28;20030;-21
2021/05/21 04:29:29;;;;;;;5.30;3.70;;;;;;;13.66;69.07;99744.53;5030389;28;20037;-22
2021/05/21 04:31:55;;;;;;;5.28;3.47;;;;;;;13.81;68.14;99751.97;5028784;28;20478;-22
2021/05/21 04:34:20;;;;;;;7.05;3.70;;;;;;;12.95;70.42;99748.75;5029938;28;20033;-23
2021/05/21 04:36:46;;;;;;;5.43;3.75;;;;;;;13.12;70.07;99749.59;5030234;28;20030;-22
2021/05/21 04:39:11;;;;;;;6.50;4.30;;;;;;;13.30;70.33;99769.16;5029815;28;20037;-22
2021/05/21 04:41:37;;;;;;;5.63;3.58;;;;;;;13.25;70.28;99762.63;5028678;28;20036;-22
2021/05/21 04:44:03;;;;;;;7.90;4.10;;;;;;;13.09;71.10;99752.75;5030260;28;20915;-22
2021/05/21 04:46:28;;;;;;;5.40;3.42;;;;;;;13.35;69.87;99775.41;5029814;28;20096;-22
2021/05/21 04:48:54;;;;;;;25.10;4.07;;;;;;;13.34;69.67;99751.56;5029878;28;20121;-22
2021/05/21 04:51:19;;;;;;;4.85;3.33;;;;;;;13.48;69.15;99779.63;5029496;28;20084;-23
2021/05/21 04:53:45;;;;;;;5.28;3.50;;;;;;;13.76;69.86;99769.84;5029858;28;20040;-23
2021/05/21 04:56:11;;;;;;;5.30;3.30;;;;;;;13.05;69.77;99759.63;5029402;28;20409;-22
2021/05/21 04:58:36;;;;;;;5.38;2.95;;;;;;;12.81;70.28;99751.75;5029818;28;20463;-21
2021/05/21 05:01:03;;;;;;;5.60;3.38;;;;;;;12.79;70.94;99761.88;5029772;28;20410;-22
2021/05/21 05:03:29;;;;;;;4.50;3.05;;;;;;;12.92;71.44;99781.38;5029582;28;20116;-28
2021/05/21 05:05:54;;;;;;;6.13;3.13;;;;;;;12.91;71.07;99766.34;5029741;28;20543;-21
2021/05/21 05:08:20;;;;;;;5.65;3.58;;;;;;;13.12;70.76;99771.00;5029321;28;20028;-22
2021/05/21 05:10:46;;;;;;;5.25;3.08;;;;;;;13.31;70.64;99784.19;5029257;28;20180;-22
2021/05/21 05:13:12;;;;;;;4.85;3.13;;;;;;;13.44;69.32;99765.09;5029419;28;20501;-22
2021/05/21 05:15:38;;;;;;;5.78;3.28;;;;;;;13.24;69.43;99771.75;5028317;28;20045;-22
2021/05/21 05:18:05;;;;;;;4.90;3.03;;;;;;;13.75;70.10;99784.28;5029486;28;20025;-22
2021/05/21 05:20:30;;;;;;;7.00;3.58;;;;;;;13.76;69.66;99780.56;5029190;28;20084;-22
2021/05/21 05:22:56;;;;;;;5.80;3.58;;;;;;;13.93;68.24;99765.25;5029009;28;20061;-23
2021/05/21 05:25:22;;;;;;;6.32;3.97;;;;;;;13.88;68.45;99783.97;5029227;28;20029;-20
2021/05/21 05:27:49;;;;;;;12.70;5.60;;;;;;;13.83;68.78;99799.94;5029367;28;20925;-22
2021/05/21 05:30:15;;;;;;;10.60;4.85;;;;;;;13.95;68.88;99805.22;5028150;28;20055;-23
2021/05/21 05:32:40;;;;;;;6.70;4.32;;;;;;;14.50;67.75;99798.94;5029433;28;20448;-22
2021/05/21 05:35:06;;;;;;;8.68;4.93;;;;;;;14.14;66.36;99803.03;5029146;28;20108;-22
2021/05/21 05:37:32;;;;;;;5.15;3.55;;;;;;;13.95;67.55;99797.97;5028917;28;20017;-21
2021/05/21 05:39:57;;;;;;;5.57;3.80;;;;;;;13.82;67.69;99774.22;5028754;28;20486;-22
2021/05/21 05:42:23;;;;;;;6.13;3.75;;;;;;;14.08;67.26;99799.50;5028935;28;20087;-22
2021/05/21 05:44:49;;;;;;;5.78;3.95;;;;;;;14.25;66.33;99805.63;5028973;28;20048;-23
2021/05/21 05:47:14;;;;;;;5.95;3.70;;;;;;;14.04;65.72;99804.56;5028722;28;20517;-22
2021/05/21 05:49:40;;;;;;;5.88;3.80;;;;;;;14.33;66.56;99812.41;5028667;28;20048;-20
2021/05/21 05:52:05;;;;;;;6.57;3.95;;;;;;;14.44;66.69;99822.22;5028785;28;20081;-23
2021/05/21 05:54:31;;;;;;;6.28;4.03;;;;;;;14.62;66.87;99822.97;5028333;28;20680;-23
2021/05/21 05:56:56;;;;;;;9.18;4.63;;;;;;;14.96;65.58;99828.19;5028835;28;20597;-22
2021/05/21 05:59:24;;;;;;;5.93;4.20;;;;;;;15.14;66.34;99833.19;5028643;28;20513;-22
2021/05/21 06:01:50;;;;;;;8.35;4.95;;;;;;;15.16;65.37;99820.31;5028543;28;20437;-22
2021/05/21 06:04:15;;;;;;;6.97;4.35;;;;;;;15.01;66.07;99822.84;5028145;28;20038;-22
2021/05/21 06:06:41;;;;;;;5.72;4.35;;;;;;;15.17;66.45;99843.41;5028371;28;20493;-23
2021/05/21 06:09:09;;;;;;;6.85;4.35;;;;;;;15.71;64.63;99847.06;5028328;28;20793;-21
2021/05/21 06:11:35;;;;;;;21.33;4.97;;;;;;;15.81;66.11;99852.53;5028447;28;20533;-22
2021/05/21 06:14:00;;;;;;;7.10;4.47;;;;;;;15.82;64.38;99846.09;5028500;28;20287;-22
2021/05/21 06:16:26;;;;;;;7.80;4.47;;;;;;;15.69;64.37;99855.38;5028477;28;20095;-22
2021/05/21 06:18:51;;;;;;;8.32;4.80;;;;;;;15.60;64.60;99851.56;5028160;28;20036;-23
2021/05/21 06:21:17;;;;;;;9.63;4.85;;;;;;;15.88;63.43;99858.53;5028067;28;20026;-24
2021/05/21 06:23:44;;;;;;;6.45;4.22;;;;;;;15.93;63.19;99850.47;5027979;28;20076;-22
2021/05/21 06:28:53;;;;;;;59.42;35.97;;;;;;;16.48;62.96;99859.91;5028408;28;20386;-22
2021/05/21 06:31:19;;;;;;;9.90;6.95;;;;;;;16.25;63.35;99844.19;5027858;28;20529;-22
2021/05/21 06:33:45;;;;;;;6.07;4.15;;;;;;;16.41;62.09;99858.53;5028041;28;20029;-23
2021/05/21 06:36:11;;;;;;;7.10;4.80;;;;;;;16.30;62.55;99849.59;5027719;28;20144;-22
2021/05/21 06:38:37;;;;;;;7.65;4.75;;;;;;;15.96;63.47;99847.28;5028215;28;20032;-23
2021/05/21 06:41:03;;;;;;;7.35;4.57;;;;;;;16.28;63.31;99843.66;5026926;28;20571;-22
2021/05/21 06:43:28;;;;;;;5.97;3.92;;;;;;;16.24;62.57;99856.84;5027328;28;20124;-23
2021/05/21 06:45:54;;;;;;;7.63;4.53;;;;;;;16.28;63.12;99857.13;5027562;28;20405;-22
2021/05/21 06:48:21;;;;;;;5.60;3.97;;;;;;;15.94;63.42;99860.16;5027181;28;20033;-22
2021/05/21 06:50:47;;;;;;;6.30;4.65;;;;;;;16.19;63.32;99864.88;5027183;28;20826;-21
2021/05/21 06:53:12;;;;;;;6.40;4.32;;;;;;;15.96;63.23;99852.66;5027902;28;20113;-22
2021/05/21 06:55:39;;;;;;;5.82;4.13;;;;;;;16.36;62.78;99871.97;5027904;28;20029;-22
2021/05/21 06:58:05;;;;;;;7.20;4.53;;;;;;;16.25;63.78;99868.41;5027556;28;20036;-22
2021/05/21 07:00:30;;;;;;;6.32;4.35;;;;;;;16.12;63.78;99860.81;5027195;28;20586;-22
2021/05/21 07:02:56;;;;;;;7.60;5.15;;;;;;;16.29;63.22;99863.34;5026095;28;20509;-23
2021/05/21 07:05:21;;;;;;;6.50;4.20;;;;;;;16.18;63.46;99854.38;5027528;28;20100;-23
2021/05/21 07:07:47;;;;;;;6.10;3.80;;;;;;;16.53;63.18;99874.47;5027319;28;20465;-23
2021/05/21 07:10:13;;;;;;;7.53;4.50;;;;;;;16.39;63.03;99880.34;5027309;28;20033;-23
2021/05/21 07:12:38;;;;;;;6.53;4.53;;;;;;;16.59;63.98;99874.22;5027205;28;20029;-22
2021/05/21 07:15:05;;;;;;;8.85;5.85;;;;;;;16.69;61.77;99881.53;5027553;28;20033;-21
2021/05/21 07:17:30;;;;;;;6.03;4.00;;;;;;;16.87;61.00;99886.47;5027333;28;20152;-22
2021/05/21 07:19:56;;;;;;;6.00;4.43;;;;;;;16.94;62.22;99894.31;5027263;28;20873;-23
2021/05/21 07:22:21;;;;;;;13.45;4.85;;;;;;;17.05;61.35;99895.94;5027001;28;20032;-23
2021/05/21 07:24:47;;;;;;;5.07;3.50;;;;;;;16.93;60.44;99889.97;5027281;28;20113;-22
2021/05/21 07:27:13;;;;;;;5.97;3.90;;;;;;;17.28;59.80;99869.56;5027103;28;20132;-22
2021/05/21 07:29:38;;;;;;;5.38;3.78;;;;;;;17.40;59.59;99888.19;5027107;28;20041;-22
2021/05/21 07:32:04;;;;;;;4.97;3.80;;;;;;;17.33;59.39;99898.44;5027212;28;20037;-22
2021/05/21 07:34:29;;;;;;;6.07;3.55;;;;;;;17.31;59.09;99895.19;5027028;28;20030;-23
2021/05/21 07:36:55;;;;;;;5.07;3.80;;;;;;;17.48;59.41;99893.84;5027097;28;20110;-22
2021/05/21 07:39:20;;;;;;;4.40;2.95;;;;;;;17.01;58.54;99899.44;5029079;28;20036;-22
2021/05/21 07:41:46;;;;;;;4.57;3.47;;;;;;;16.63;59.93;99901.41;5031145;28;20478;-22
2021/05/21 07:44:12;;;;;;;5.88;3.28;;;;;;;16.83;59.53;99911.50;5030717;28;20041;-22
2021/05/21 07:46:37;;;;;;;5.78;3.33;;;;;;;16.74;60.00;99897.72;5030995;28;20052;-22
2021/05/21 07:49:03;;;;;;;4.82;3.22;;;;;;;16.51;60.29;99904.34;5030996;28;20045;-22
2021/05/21 07:51:28;;;;;;;4.50;3.00;;;;;;;16.20;60.49;99890.72;5030863;28;20140;-22
2021/05/21 07:53:54;;;;;;;6.13;3.70;;;;;;;16.72;59.63;99910.63;5031054;28;20073;-22
2021/05/21 07:56:20;;;;;;;5.50;3.75;;;;;;;16.61;59.90;99895.47;5030780;28;20814;-22
2021/05/21 07:58:45;;;;;;;5.38;4.05;;;;;;;16.65;61.38;99904.66;5030736;28;20033;-22
2021/05/21 08:01:11;;;;;;;5.50;3.38;;;;;;;17.09;59.53;99925.88;5030806;28;20030;-22
2021/05/21 08:03:36;;;;;;;5.45;3.45;;;;;;;17.13;60.10;99934.22;5030791;28;20065;-22
2021/05/21 08:06:02;;;;;;;5.78;3.75;;;;;;;17.65;59.63;99939.44;5030864;28;20482;-22
2021/05/21 08:08:28;;;;;;;9.85;3.85;;;;;;;17.75;59.33;99937.81;5030579;28;20100;-22
2021/05/21 08:10:55;;;;;;;4.60;3.33;;;;;;;17.62;56.82;99950.75;5030873;28;20029;-22
2021/05/21 08:13:20;;;;;;;5.88;3.53;;;;;;;17.89;57.34;99948.91;5030806;28;20132;-22
2021/05/21 08:15:46;;;;;;;7.80;4.10;;;;;;;18.18;57.41;99955.34;5030454;28;20068;-22
2021/05/21 08:18:11;;;;;;;5.57;3.90;;;;;;;18.32;57.33;99955.59;5030165;28;20039;-22
2021/05/21 08:20:38;;;;;;;5.72;4.28;;;;;;;18.62;54.95;99953.94;5030430;28;20041;-23
2021/05/21 08:23:03;;;;;;;5.68;3.90;;;;;;;18.65;55.65;99977.66;5030366;28;20482;-22
2021/05/21 08:25:29;;;;;;;6.22;4.10;;;;;;;18.70;55.62;99964.16;5030372;28;20037;-22
2021/05/21 08:27:54;;;;;;;5.35;3.83;;;;;;;19.22;54.32;99967.47;5030313;28;20397;-24
2021/05/21 08:30:21;;;;;;;4.80;3.58;;;;;;;19.87;53.05;99962.72;5029779;28;20026;-23
2021/05/21 08:32:49;;;;;;;4.85;3.65;;;;;;;20.24;52.05;99974.88;5030195;28;20025;-23
2021/05/21 08:35:18;;;;;;;5.97;3.08;;;;;;;19.83;52.33;99969.00;5030064;28;20045;-24
2021/05/21 08:37:43;;;;;;;5.05;3.78;;;;;;;19.71;50.88;99963.16;5029923;28;20033;-24
2021/05/21 08:40:11;;;;;;;5.18;3.60;;;;;;;20.33;49.31;99961.53;5030078;28;20037;-24
2021/05/21 08:42:38;;;;;;;7.65;3.80;;;;;;;20.54;47.98;99969.44;5030026;28;20029;-24
2021/05/21 08:45:05;;;;;;;5.10;3.83;;;;;;;20.07;48.05;99967.19;5029831;28;20042;-24
2021/05/21 08:47:34;;;;;;;4.87;3.93;;;;;;;20.48;45.44;99966.78;5029900;28;20030;-24
2021/05/21 08:50:07;;;;;;;6.22;3.72;;;;;;;20.47;44.05;99967.06;5029700;28;20291;-24
2021/05/21 08:52:32;;;;;;;6.00;3.97;;;;;;;20.42;49.73;99969.84;5029605;28;20118;-24
2021/05/21 08:54:58;;;;;;;5.07;3.83;;;;;;;20.72;45.89;99954.34;5028581;28;20029;-24
2021/05/21 08:57:23;;;;;;;5.05;3.80;;;;;;;21.20;43.63;99976.78;5029616;28;20100;-24
2021/05/21 08:59:49;;;;;;;5.10;3.72;;;;;;;21.41;42.57;99973.78;5011842;28;20025;-24
2021/05/21 09:02:25;;;;;;;12.10;4.15;;;;;;;21.35;45.41;99964.09;5029423;28;20452;-26
2021/05/21 09:04:58;;;;;;;4.97;3.97;;;;;;;21.54;43.22;99967.66;5029845;28;20029;-25
2021/05/21 09:07:33;;;;;;;5.72;4.07;;;;;;;20.90;43.48;99969.03;5028129;28;20189;-25
2021/05/21 09:10:21;;;;;;;5.47;3.85;;;;;;;20.66;45.91;99964.47;5029128;28;20049;-24
2021/05/21 09:12:51;;;;;;;5.03;3.90;;;;;;;21.21;43.03;99972.19;5029417;28;20033;-24
2021/05/21 09:15:24;;;;;;;5.82;4.65;;;;;;;21.01;45.74;99965.91;5029555;28;20073;-24
2021/05/21 09:17:54;;;;;;;5.70;4.30;;;;;;;20.68;46.45;99962.28;5029188;28;20060;-24
2021/05/21 09:20:30;;;;;;;6.40;4.43;;;;;;;20.72;46.02;99974.16;5028967;28;20624;-25
2021/05/21 09:22:59;;;;;;;6.18;4.05;;;;;;;20.91;46.13;99986.94;5029188;28;20474;-25
2021/05/21 09:25:38;;;;;;;6.45;4.05;;;;;;;21.03;44.16;99984.63;5029134;28;20171;-22
2021/05/21 09:28:04;;;;;;;5.45;4.05;;;;;;;21.20;44.14;99989.53;5029409;28;20022;-23
2021/05/21 09:30:29;;;;;;;5.20;4.15;;;;;;;22.03;42.12;99985.34;5029054;28;20029;-22
2021/05/21 09:33:03;;;;;;;6.38;4.43;;;;;;;21.17;45.73;99985.53;5028997;28;20052;-22
2021/05/21 09:35:28;;;;;;;7.07;4.85;;;;;;;21.63;44.37;99984.88;5029029;28;20390;-22
2021/05/21 09:37:55;;;;;;;6.40;4.57;;;;;;;21.61;42.66;99991.72;5029117;28;20036;-22
2021/05/21 09:40:27;;;;;;;6.40;4.40;;;;;;;22.21;41.65;99988.28;5028605;28;20478;-21
2021/05/21 09:43:03;;;;;;;5.93;4.03;;;;;;;22.46;40.54;99987.88;5028914;28;20024;-21
2021/05/21 09:45:38;;;;;;;6.18;4.40;;;;;;;22.81;39.53;99987.50;5028525;28;20117;-22
2021/05/21 09:48:03;;;;;;;5.00;3.97;;;;;;;22.75;37.36;99981.34;5029071;28;20076;-22
2021/05/21 09:50:36;;;;;;;10.00;5.97;;;;;;;22.78;40.57;99978.03;5028458;28;20061;-22
2021/05/21 09:53:09;;;;;;;6.63;4.97;;;;;;;22.65;39.06;99984.28;5028517;28;20050;-22
2021/05/21 09:56:05;;;;;;;13.50;7.55;;;;;;;22.50;40.49;99981.88;5028670;28;20480;-21
2021/05/21 09:58:40;;;;;;;7.28;4.45;;;;;;;22.26;44.10;100007.25;5028249;28;20049;-24
2021/05/21 10:01:21;;;;;;;14.85;6.93;;;;;;;21.55;51.12;100011.88;5028155;28;20100;-24
2021/05/21 10:03:54;;;;;;;7.93;5.22;;;;;;;20.83;52.61;100002.72;5028521;28;20088;-23
2021/05/21 10:06:20;;;;;;;8.25;5.97;;;;;;;20.55;54.36;99998.13;5028073;28;20033;-24
2021/05/21 10:08:47;;;;;;;7.43;6.10;;;;;;;20.59;54.32;99997.28;5028227;28;20044;-24
2021/05/21 10:11:13;;;;;;;9.05;6.20;;;;;;;20.69;55.99;100003.72;5028399;28;20064;-24
2021/05/21 10:13:43;;;;;;;6.90;5.30;;;;;;;20.12;53.79;99989.88;5028423;28;20030;-24
2021/05/21 10:16:09;;;;;;;6.65;5.15;;;;;;;20.37;53.49;100011.31;5028497;28;20022;-24
2021/05/21 10:18:35;;;;;;;6.35;4.85;;;;;;;20.33;55.17;99982.38;5026888;28;20030;-24
2021/05/21 10:21:00;;;;;;;5.85;4.50;;;;;;;20.43;53.79;99993.94;5028096;28;20072;-24
2021/05/21 10:23:29;;;;;;;7.18;5.25;;;;;;;20.94;54.30;100008.03;5028764;28;20469;-24
2021/05/21 10:25:56;;;;;;;6.03;5.13;;;;;;;20.95;54.89;99999.63;5010828;28;20029;-24
2021/05/21 10:28:24;;;;;;;6.22;4.78;;;;;;;21.18;54.26;100019.66;5027092;28;20091;-22
2021/05/21 10:30:50;;;;;;;7.63;4.90;;;;;;;21.77;52.36;100022.16;5027921;28;20103;-22
2021/05/21 10:33:20;;;;;;;5.97;4.85;;;;;;;21.31;49.69;99991.03;5027871;28;20474;-21
2021/05/21 10:35:47;;;;;;;6.05;4.70;;;;;;;21.95;50.77;100004.22;5027860;28;20188;-23
2021/05/21 10:38:25;;;;;;;5.82;4.30;;;;;;;22.12;48.65;100014.53;5027760;28;20033;-22
2021/05/21 10:41:14;;;;;;;4.63;2.88;;;;;;;22.05;46.72;100010.28;5028131;28;20025;-22
2021/05/21 10:43:49;;;;;;;3.97;3.00;;;;;;;22.89;45.11;100007.75;5027762;28;20555;-21
2021/05/21 10:46:16;;;;;;;2.75;2.10;;;;;;;23.14;45.17;100003.72;5027507;28;20029;-23
2021/05/21 10:48:51;;;;;;;2.60;1.90;;;;;;;23.38;41.94;100006.19;5027711;28;20037;-23
2021/05/21 10:51:17;;;;;;;2.42;1.35;;;;;;;22.86;41.70;100012.69;5027330;28;20045;-23
2021/05/21 10:53:46;;;;;;;1.67;1.50;;;;;;;22.28;42.18;100032.22;5027931;28;20044;-22
2021/05/21 10:56:13;;;;;;;2.72;1.52;;;;;;;21.95;41.97;100026.75;5027498;28;20056;-22
2021/05/21 10:58:47;;;;;;;3.15;1.60;;;;;;;22.48;42.35;100038.41;5027481;28;20121;-23
2021/05/21 11:01:17;;;;;;;1.67;1.33;;;;;;;23.33;40.70;100036.22;5027502;28;20048;-23
2021/05/21 11:04:06;;;;;;;2.03;1.70;;;;;;;23.82;41.69;100030.00;5027478;28;20031;-23
2021/05/21 11:06:55;;;;;;;2.75;1.73;;;;;;;23.38;40.44;100044.31;5027213;28;20041;-23
2021/05/21 11:09:25;;;;;;;2.10;1.40;;;;;;;23.54;42.02;100036.59;5027342;28;20029;-23
2021/05/21 11:11:54;;;;;;;3.83;1.60;;;;;;;23.61;38.74;100053.31;5027953;28;20790;-23
2021/05/21 11:14:41;;;;;;;2.28;1.70;;;;;;;23.50;38.25;100036.41;5026171;28;20033;-22
2021/05/21 11:17:11;;;;;;;;;;;;;;;23.08;40.08;100051.97;5027735;28;20186;-21
2021/05/21 11:19:36;;;;;;;3.95;1.90;;;;;;;22.66;41.48;100051.13;5027242;28;19908;-23
2021/05/21 11:22:26;;;;;;;2.20;1.60;;;;;;;23.41;39.74;100051.84;5027178;28;20042;-22
2021/05/21 11:24:53;;;;;;;1.85;1.50;;;;;;;24.21;37.83;100057.66;5027164;28;20513;-22
2021/05/21 11:27:26;;;;;;;1.83;1.65;;;;;;;24.21;36.40;100053.03;5026862;28;20159;-23
2021/05/21 11:29:52;;;;;;;2.30;1.65;;;;;;;23.27;39.58;100054.56;5025761;28;20072;-22
2021/05/21 11:32:19;;;;;;;2.85;2.00;;;;;;;22.72;41.18;100060.81;5027011;28;20045;-22
2021/05/21 11:34:45;;;;;;;3.63;1.90;;;;;;;22.52;41.41;100050.31;5027349;28;20029;-23